Time;durP1;ratioP1;P1;durP2;ratioP2;P2;SDS_P1;SDS_P2;PMS_P1;PMS_P2;Temp;Humidity;BMP_temperature;BMP_pressure;BME280_temperature;BME280_humidity;BME280_pressure;Samples;Min_cycle;Max_cycle;Signal;HPM_P1;HPM_P2
2023/07/23 00:00:56;;;;;;;7.23;5.40;;;;;;;23.94;54.44;99981.03;5030930;28;20464;-65
2023/07/23 00:03:21;;;;;;;8.90;5.17;;;;;;;23.94;54.26;99977.38;5033151;28;20612;-65
2023/07/23 00:05:46;;;;;;;7.60;4.90;;;;;;;23.93;54.29;99982.28;5030157;28;20723;-66
2023/07/23 00:08:13;;;;;;;5.97;4.43;;;;;;;23.93;54.31;99970.75;5032163;28;20188;-66
2023/07/23 00:10:38;;;;;;;9.13;5.33;;;;;;;23.94;54.29;99971.59;5029673;28;20254;-66
2023/07/23 00:13:04;;;;;;;7.37;5.33;;;;;;;23.93;54.44;99976.53;5029693;28;20869;-65
2023/07/23 00:15:29;;;;;;;9.20;5.63;;;;;;;23.94;54.23;99969.50;5048554;28;20179;-66
2023/07/23 00:17:57;;;;;;;7.27;5.30;;;;;;;23.93;54.28;99979.41;5068735;28;20242;-66
2023/07/23 00:20:22;;;;;;;6.60;4.93;;;;;;;23.93;54.31;99970.75;5058322;28;20267;-65
2023/07/23 00:22:47;;;;;;;7.17;5.20;;;;;;;23.94;54.37;99978.16;5047559;28;21022;-66
2023/07/23 00:25:16;;;;;;;12.47;5.43;;;;;;;23.93;54.30;99982.28;5030205;28;20940;-65
2023/07/23 00:27:41;;;;;;;6.80;3.97;;;;;;;23.93;54.80;99978.63;5018929;28;20593;-66
2023/07/23 00:30:07;;;;;;;7.70;4.90;;;;;;;23.92;54.48;99977.78;5023739;28;20434;-65
2023/07/23 00:32:33;;;;;;;7.70;5.10;;;;;;;23.93;54.51;99975.72;5049694;28;20188;-66
2023/07/23 00:34:58;;;;;;;7.70;4.63;;;;;;;23.92;54.05;99977.78;5046537;28;20226;-66
2023/07/23 00:37:23;;;;;;;6.67;4.27;;;;;;;23.93;54.19;99979.41;5052828;28;20905;-66
2023/07/23 00:39:49;;;;;;;6.43;4.70;;;;;;;23.92;54.18;99969.13;5050245;28;20179;-66
2023/07/23 00:42:14;;;;;;;6.17;4.40;;;;;;;23.91;54.64;99970.38;5034842;28;20187;-66
2023/07/23 00:44:40;;;;;;;6.00;4.60;;;;;;;23.92;54.54;99968.28;5034195;28;20184;-65
2023/07/23 00:47:05;;;;;;;9.13;4.50;;;;;;;23.92;54.16;99971.19;5050193;28;20242;-65
2023/07/23 00:49:31;;;;;;;6.33;4.67;;;;;;;23.91;54.44;99966.66;5031350;28;20180;-65
2023/07/23 00:51:56;;;;;;;6.53;4.23;;;;;;;23.91;54.48;99970.38;5049175;28;20192;-65
2023/07/23 00:54:22;;;;;;;5.73;3.93;;;;;;;23.91;54.55;99966.66;5028522;28;20249;-65
2023/07/23 00:56:47;;;;;;;6.83;4.30;;;;;;;23.92;53.82;99966.25;5047907;28;20940;-65
2023/07/23 00:59:13;;;;;;;8.30;4.93;;;;;;;23.92;54.38;99963.34;5040578;28;20762;-66
2023/07/23 01:01:38;;;;;;;6.03;4.10;;;;;;;23.91;54.46;99963.78;5028420;28;20847;-66
2023/07/23 01:04:04;;;;;;;7.37;4.47;;;;;;;23.91;54.20;99960.91;5029595;28;20730;-66
2023/07/23 01:06:35;;;;;;;5.40;3.97;;;;;;;23.91;54.49;99955.97;5032152;28;20545;-66
2023/07/23 01:09:01;;;;;;;6.50;4.47;;;;;;;23.89;54.23;99955.56;5042224;28;20851;-65
2023/07/23 01:11:26;;;;;;;7.53;4.30;;;;;;;23.90;54.66;99947.72;5048384;28;20492;-65
2023/07/23 01:13:52;;;;;;;6.10;4.57;;;;;;;23.90;54.32;99953.50;5025789;28;20197;-65
2023/07/23 01:16:18;;;;;;;7.10;4.50;;;;;;;23.89;54.24;99946.91;5046912;28;20172;-66
2023/07/23 01:18:43;;;;;;;6.30;4.43;;;;;;;23.90;54.37;99941.97;5064098;28;20219;-65
2023/07/23 01:21:14;;;;;;;7.27;4.80;;;;;;;23.89;54.10;99946.91;5068058;28;20904;-65
2023/07/23 01:23:40;;;;;;;7.30;4.00;;;;;;;23.89;54.30;99952.66;5040936;28;20184;-65
2023/07/23 01:26:07;;;;;;;6.00;3.97;;;;;;;23.90;54.84;99950.63;5048325;28;20472;-65
2023/07/23 01:28:32;;;;;;;6.17;4.07;;;;;;;23.89;54.70;99951.88;5050197;28;20220;-65
2023/07/23 01:30:58;;;;;;;7.87;4.40;;;;;;;23.89;54.58;99951.88;5049510;28;20796;-66
2023/07/23 01:33:23;;;;;;;6.10;4.23;;;;;;;23.87;53.98;99940.72;5049400;28;20171;-65
2023/07/23 01:35:54;;;;;;;8.00;4.67;;;;;;;23.88;54.40;99944.44;5030465;28;20192;-65
2023/07/23 01:38:20;;;;;;;6.13;4.17;;;;;;;23.87;54.25;99949.38;5033513;28;20214;-65
2023/07/23 01:40:45;;;;;;;7.10;4.20;;;;;;;23.88;54.66;99945.22;5048648;28;20434;-65
2023/07/23 01:43:11;;;;;;;7.43;3.90;;;;;;;23.87;54.43;99949.38;5049232;28;20843;-65
2023/07/23 01:45:36;;;;;;;5.60;3.67;;;;;;;23.87;54.15;99937.84;5014555;28;20621;-66
2023/07/23 01:48:02;;;;;;;6.43;3.80;;;;;;;23.87;53.96;99949.38;5039915;28;20191;-66
2023/07/23 01:50:27;;;;;;;4.80;3.30;;;;;;;23.86;54.39;99941.97;5057939;28;20231;-65
2023/07/23 01:52:53;;;;;;;5.33;3.87;;;;;;;23.86;54.66;99947.75;5064850;28;20550;-66
2023/07/23 01:55:18;;;;;;;6.20;3.97;;;;;;;23.87;54.15;99949.38;5058252;28;20550;-66
2023/07/23 01:57:44;;;;;;;7.07;3.70;;;;;;;23.85;54.35;99939.50;5067880;28;20185;-65
2023/07/23 02:00:10;;;;;;;5.87;3.90;;;;;;;23.86;54.31;99941.13;5063520;28;20261;-65
2023/07/23 02:02:36;;;;;;;6.67;4.50;;;;;;;23.85;53.96;99940.34;5067863;28;20504;-65
2023/07/23 02:05:02;;;;;;;5.87;3.57;;;;;;;23.85;54.07;99946.09;5062292;28;20525;-65
2023/07/23 02:07:28;;;;;;;6.00;3.87;;;;;;;23.84;54.35;99947.31;5047338;28;20270;-65
2023/07/23 02:09:53;;;;;;;5.77;4.10;;;;;;;23.85;54.14;99948.16;5046640;28;21009;-65
2023/07/23 02:12:19;;;;;;;5.33;3.60;;;;;;;23.83;54.30;99937.03;5031421;28;20570;-66
2023/07/23 02:14:45;;;;;;;6.80;3.93;;;;;;;23.83;53.77;99942.81;5057755;28;20541;-66
2023/07/23 02:17:10;;;;;;;5.37;3.87;;;;;;;23.83;53.92;99942.81;5063350;28;20223;-66
2023/07/23 02:19:37;;;;;;;5.23;3.60;;;;;;;23.82;54.04;99949.81;5066057;28;20166;-66
2023/07/23 02:22:02;;;;;;;5.40;3.47;;;;;;;23.83;54.07;99948.56;5047311;28;20175;-65
2023/07/23 02:24:28;;;;;;;6.50;3.57;;;;;;;23.82;54.13;99946.94;5047448;28;20430;-66
2023/07/23 02:26:53;;;;;;;5.57;3.70;;;;;;;23.83;54.07;99947.78;5047407;28;20259;-66
2023/07/23 02:29:19;;;;;;;5.90;3.70;;;;;;;23.81;53.94;99945.31;5049797;28;20199;-66
2023/07/23 02:31:44;;;;;;;7.43;3.90;;;;;;;23.81;54.22;99939.53;5029236;28;20195;-66
2023/07/23 02:34:09;;;;;;;5.40;3.53;;;;;;;23.82;54.11;99946.13;5064746;28;20201;-65
2023/07/23 02:36:35;;;;;;;6.23;3.57;;;;;;;23.81;53.86;99948.19;5033323;28;20241;-65
2023/07/23 02:39:00;;;;;;;5.70;3.63;;;;;;;23.81;53.93;99944.47;5029820;28;20190;-65
2023/07/23 02:41:26;;;;;;;4.77;3.37;;;;;;;23.81;53.83;99944.47;5057416;28;20208;-66
2023/07/23 02:43:53;;;;;;;6.50;3.93;;;;;;;23.79;54.10;99947.78;5067434;28;20170;-65
2023/07/23 02:46:18;;;;;;;7.00;4.00;;;;;;;23.80;54.33;99948.63;5067386;28;20692;-66
2023/07/23 02:48:43;;;;;;;6.50;3.73;;;;;;;23.80;53.91;99949.44;5067412;28;20413;-66
2023/07/23 02:51:09;;;;;;;6.00;3.40;;;;;;;23.79;53.89;99946.97;5054138;28;20195;-64
2023/07/23 02:53:34;;;;;;;5.60;3.73;;;;;;;23.80;53.79;99955.22;5047355;28;20164;-66
2023/07/23 02:56:00;;;;;;;6.53;3.27;;;;;;;23.79;53.67;99953.53;5039841;28;20670;-66
2023/07/23 02:58:25;;;;;;;4.73;3.27;;;;;;;23.79;53.65;99952.75;5046946;28;20238;-65
2023/07/23 03:00:51;;;;;;;5.40;3.50;;;;;;;23.77;53.88;99956.06;5066188;28;20167;-65
2023/07/23 03:03:16;;;;;;;6.23;3.30;;;;;;;23.79;53.58;99956.44;5053008;28;20191;-66
2023/07/23 03:05:42;;;;;;;4.97;3.40;;;;;;;23.78;53.86;99959.75;5065461;28;20194;-66
2023/07/23 03:08:08;;;;;;;8.83;3.83;;;;;;;23.78;53.64;99963.44;5058710;28;20202;-65
2023/07/23 03:10:33;;;;;;;5.60;3.70;;;;;;;23.78;53.71;99951.91;5046776;28;20446;-65
2023/07/23 03:12:59;;;;;;;5.70;3.47;;;;;;;23.77;53.71;99950.28;5049863;28;20262;-65
2023/07/23 03:15:24;;;;;;;5.00;3.23;;;;;;;23.77;53.71;99950.28;5062138;28;20187;-65
2023/07/23 03:17:51;;;;;;;5.30;3.40;;;;;;;23.77;53.71;99956.06;5028798;28;20770;-66
2023/07/23 03:20:17;;;;;;;5.63;3.30;;;;;;;23.77;53.72;99958.94;5037655;28;20188;-65
2023/07/23 03:22:43;;;;;;;4.83;3.13;;;;;;;23.77;53.55;99958.09;5065802;28;20892;-66
2023/07/23 03:25:08;;;;;;;4.77;3.23;;;;;;;23.77;53.75;99961.81;5051752;28;20461;-65
2023/07/23 03:27:34;;;;;;;5.80;3.20;;;;;;;23.75;53.84;99954.84;5062632;28;20693;-66
2023/07/23 03:29:59;;;;;;;5.60;3.20;;;;;;;23.76;53.51;99965.94;5064289;28;20216;-65
2023/07/23 03:32:24;;;;;;;4.20;3.10;;;;;;;23.75;53.61;99970.09;5055731;28;20254;-65
2023/07/23 03:34:50;;;;;;;4.63;3.00;;;;;;;23.75;53.58;99961.44;5062617;28;20187;-65
2023/07/23 03:37:16;;;;;;;4.30;3.03;;;;;;;23.74;53.62;99962.66;5051458;28;20231;-65
2023/07/23 03:39:42;;;;;;;6.80;3.37;;;;;;;23.75;53.71;99970.09;5053994;28;20293;-66
2023/07/23 03:42:07;;;;;;;3.40;2.60;;;;;;;23.75;53.54;99966.38;5057063;28;20417;-65
2023/07/23 03:44:33;;;;;;;4.23;2.80;;;;;;;23.74;53.58;99971.31;5061656;28;20192;-66
2023/07/23 03:47:17;;;;;;;6.10;3.40;;;;;;;23.73;53.50;99966.78;5032518;28;20176;-65
2023/07/23 03:49:42;;;;;;;4.40;2.87;;;;;;;23.74;53.73;99970.50;5056568;28;20194;-66
2023/07/23 03:52:08;;;;;;;4.70;3.10;;;;;;;23.74;53.62;99964.72;5051243;28;20457;-65
2023/07/23 03:54:34;;;;;;;5.20;3.67;;;;;;;23.73;53.76;99974.63;5050978;28;20163;-66
2023/07/23 03:56:59;;;;;;;6.23;3.03;;;;;;;23.73;53.53;99972.56;5054783;28;20840;-65
2023/07/23 03:59:29;;;;;;;4.57;3.10;;;;;;;23.72;53.49;99970.91;5047131;28;20198;-65
2023/07/23 04:01:54;;;;;;;5.63;3.23;;;;;;;23.73;53.91;99980.41;5047831;28;20241;-65
2023/07/23 04:04:20;;;;;;;5.20;3.07;;;;;;;23.73;53.44;99980.41;5046686;28;20496;-65
2023/07/23 04:06:45;;;;;;;5.33;3.23;;;;;;;23.72;53.77;99982.44;5063824;28;20651;-65
2023/07/23 04:09:12;;;;;;;5.77;3.40;;;;;;;23.72;53.43;99972.97;5054326;28;20621;-65
2023/07/23 04:11:38;;;;;;;5.17;3.03;;;;;;;23.70;53.53;99979.19;5049137;28;20800;-65
2023/07/23 04:14:03;;;;;;;4.93;3.07;;;;;;;23.72;53.61;99984.50;5050889;28;20449;-65
2023/07/23 04:16:29;;;;;;;5.03;3.43;;;;;;;23.71;53.69;99986.59;5068899;28;20236;-65
2023/07/23 04:18:54;;;;;;;4.73;2.77;;;;;;;23.71;53.71;99988.63;5061736;28;20271;-65
2023/07/23 04:21:21;;;;;;;5.37;2.90;;;;;;;23.69;53.69;99982.47;5050665;28;20195;-66
2023/07/23 04:23:51;;;;;;;9.30;3.70;;;;;;;23.68;53.59;99987.41;5046363;28;20283;-66
2023/07/23 04:26:16;;;;;;;4.77;2.93;;;;;;;23.69;53.41;100000.56;5032752;28;20402;-66
2023/07/23 04:28:42;;;;;;;5.33;2.93;;;;;;;23.70;53.87;99996.47;5032791;28;20519;-65
2023/07/23 04:31:07;;;;;;;5.07;3.00;;;;;;;23.69;53.49;99997.69;5039321;28;20200;-66
2023/07/23 04:33:33;;;;;;;4.93;3.43;;;;;;;23.69;53.77;99994.00;5048758;28;20183;-65
2023/07/23 04:35:58;;;;;;;5.40;3.13;;;;;;;23.68;53.59;99996.06;5012375;28;20688;-65
2023/07/23 04:38:24;;;;;;;6.57;3.70;;;;;;;23.69;53.35;99988.25;5032879;28;20679;-66
2023/07/23 04:40:49;;;;;;;5.70;3.63;;;;;;;23.71;53.37;100000.16;5030600;28;20160;-65
2023/07/23 04:43:15;;;;;;;4.60;2.80;;;;;;;23.70;53.33;100005.13;5029804;28;20177;-65
2023/07/23 04:45:40;;;;;;;5.70;2.63;;;;;;;23.71;53.64;99998.13;5047760;28;20183;-66
2023/07/23 04:48:06;;;;;;;4.57;3.23;;;;;;;23.72;53.44;99993.97;5069108;28;20171;-65
2023/07/23 04:50:31;;;;;;;4.47;2.60;;;;;;;23.74;53.07;99994.38;5058964;28;20203;-66
2023/07/23 04:52:57;;;;;;;4.73;3.10;;;;;;;23.74;53.35;99991.47;5053309;28;20180;-65
2023/07/23 04:55:22;;;;;;;5.00;2.80;;;;;;;23.75;53.44;99992.31;5037322;28;20184;-65
2023/07/23 04:57:47;;;;;;;4.70;2.77;;;;;;;23.72;53.58;99996.03;5030486;28;20210;-65
2023/07/23 05:00:13;;;;;;;4.40;2.63;;;;;;;23.69;53.62;99994.00;5023286;28;20651;-65
2023/07/23 05:02:38;;;;;;;4.80;2.90;;;;;;;23.68;53.60;99993.19;5046039;28;20663;-65
2023/07/23 05:05:04;;;;;;;6.70;3.70;;;;;;;23.68;53.72;99998.16;5042409;28;20652;-65
2023/07/23 05:07:30;;;;;;;4.80;2.90;;;;;;;23.66;53.56;99998.56;5011436;28;20168;-65
2023/07/23 05:09:55;;;;;;;6.40;3.70;;;;;;;23.66;53.67;99998.56;4994610;28;20188;-65
2023/07/23 05:12:21;;;;;;;5.53;3.60;;;;;;;23.66;53.74;99991.97;5047489;28;20188;-66
2023/07/23 05:14:47;;;;;;;3.40;2.43;;;;;;;23.67;53.54;99999.38;5046157;28;20176;-65
2023/07/23 05:17:13;;;;;;;4.83;3.40;;;;;;;23.66;53.19;99994.84;5038920;28;20796;-65
2023/07/23 05:19:39;;;;;;;4.63;2.90;;;;;;;23.66;53.45;99997.72;5052556;28;20421;-65
2023/07/23 05:22:05;;;;;;;4.90;3.30;;;;;;;23.65;53.55;100002.69;5050304;28;20448;-65
2023/07/23 05:24:30;;;;;;;5.10;3.00;;;;;;;23.66;53.37;100000.63;5069600;28;20175;-65
2023/07/23 05:26:55;;;;;;;5.73;3.03;;;;;;;23.64;53.63;99998.16;5069535;28;20167;-65
2023/07/23 05:29:21;;;;;;;7.07;3.40;;;;;;;23.64;53.37;100001.03;5065300;28;20198;-65
2023/07/23 05:31:46;;;;;;;5.90;3.10;;;;;;;23.65;53.29;99999.81;5068971;28;20187;-66
2023/07/23 05:34:12;;;;;;;5.47;2.90;;;;;;;23.65;53.84;100005.56;5069461;28;20169;-65
2023/07/23 05:36:37;;;;;;;4.33;2.63;;;;;;;23.65;53.42;99998.97;5067339;28;20163;-65
2023/07/23 05:39:03;;;;;;;5.37;2.70;;;;;;;23.65;53.42;100004.75;5053303;28;20188;-66
2023/07/23 05:41:28;;;;;;;4.13;2.60;;;;;;;23.64;53.55;100006.78;5049027;28;20221;-65
2023/07/23 05:43:54;;;;;;;4.80;2.90;;;;;;;23.65;53.20;100005.56;5067178;28;20178;-66
2023/07/23 05:46:19;;;;;;;4.60;3.10;;;;;;;23.65;53.39;100014.22;5067708;28;20178;-66
2023/07/23 05:48:45;;;;;;;5.20;3.10;;;;;;;23.64;53.27;100009.69;5052969;28;20188;-66
2023/07/23 05:51:10;;;;;;;4.93;3.10;;;;;;;23.64;53.35;100006.00;5059764;28;20218;-65
2023/07/23 05:53:35;;;;;;;6.03;3.00;;;;;;;23.64;53.58;100015.44;5048992;28;20191;-66
2023/07/23 05:56:01;;;;;;;5.73;3.17;;;;;;;23.63;53.48;100013.00;5062815;28;20179;-65
2023/07/23 05:58:27;;;;;;;4.27;2.80;;;;;;;23.63;53.41;100018.78;5064878;28;20175;-66
2023/07/23 06:00:53;;;;;;;5.13;2.70;;;;;;;23.62;53.79;100009.28;5049728;28;20175;-65
2023/07/23 06:03:19;;;;;;;4.47;2.77;;;;;;;23.63;53.49;100010.13;5047775;28;20418;-66
2023/07/23 06:05:44;;;;;;;6.03;3.10;;;;;;;23.63;53.55;100013.00;5058308;28;20453;-65
2023/07/23 06:08:10;;;;;;;5.43;3.57;;;;;;;23.62;53.58;100006.41;5067872;28;20594;-65
2023/07/23 06:10:35;;;;;;;4.60;2.67;;;;;;;23.62;53.56;100012.19;5064192;28;20233;-66
2023/07/23 06:13:00;;;;;;;5.17;2.93;;;;;;;23.62;53.56;100012.19;5060977;28;20190;-65
2023/07/23 06:15:26;;;;;;;5.10;3.03;;;;;;;23.61;53.61;99999.00;5041260;28;20283;-65
2023/07/23 06:17:51;;;;;;;4.07;2.77;;;;;;;23.61;53.38;100004.78;5047540;28;20228;-65
2023/07/23 06:20:17;;;;;;;4.10;2.60;;;;;;;23.62;53.38;100008.47;5058015;28;20193;-65
2023/07/23 06:22:42;;;;;;;4.90;3.10;;;;;;;23.62;53.38;100003.53;5068247;28;20179;-65
2023/07/23 06:25:08;;;;;;;7.27;3.60;;;;;;;23.62;53.54;100002.69;5067967;28;20171;-66
2023/07/23 06:27:34;;;;;;;4.53;2.70;;;;;;;23.62;53.67;99997.75;5067453;28;20201;-65
2023/07/23 06:29:59;;;;;;;4.50;3.00;;;;;;;23.64;53.39;100001.03;5050392;28;20182;-65
2023/07/23 06:32:24;;;;;;;8.23;2.90;;;;;;;23.63;53.57;99998.59;5068206;28;20207;-67
2023/07/23 06:34:50;;;;;;;4.77;2.67;;;;;;;23.62;53.57;99999.81;5056113;28;20183;-67
2023/07/23 06:37:15;;;;;;;4.97;2.67;;;;;;;23.63;53.56;100007.25;5060365;28;20187;-67
2023/07/23 06:39:41;;;;;;;4.07;2.63;;;;;;;23.62;53.83;100008.47;5049735;28;20178;-67
2023/07/23 06:42:06;;;;;;;4.73;3.00;;;;;;;23.62;53.60;100006.41;5044455;28;20182;-66
2023/07/23 06:44:32;;;;;;;5.10;3.27;;;;;;;23.61;53.40;100010.53;5066298;28;20175;-67
2023/07/23 06:46:58;;;;;;;5.10;2.70;;;;;;;23.62;53.78;100009.28;5050335;28;20171;-66
2023/07/23 06:49:28;;;;;;;6.40;2.90;;;;;;;23.62;53.50;100008.47;5061402;28;20190;-66
2023/07/23 06:51:56;;;;;;;4.90;2.93;;;;;;;23.62;53.46;100005.56;5066005;28;20777;-66
2023/07/23 06:54:22;;;;;;;4.63;3.03;;;;;;;23.61;53.52;100007.66;5066355;28;20504;-67
2023/07/23 06:56:49;;;;;;;4.50;2.60;;;;;;;23.61;53.77;100013.44;5046432;28;21029;-67
2023/07/23 06:59:15;;;;;;;4.30;2.70;;;;;;;23.62;53.74;100008.47;5063269;28;20274;-66
2023/07/23 07:01:40;;;;;;;4.83;3.07;;;;;;;23.62;53.82;100000.66;5050460;28;21089;-67
2023/07/23 07:04:06;;;;;;;4.70;2.90;;;;;;;23.63;53.65;99999.41;5071249;28;20186;-67
2023/07/23 07:06:31;;;;;;;4.20;2.60;;;;;;;23.62;53.50;100003.53;5060353;28;20190;-67
2023/07/23 07:08:57;;;;;;;4.27;2.67;;;;;;;23.63;53.54;100001.47;5051485;28;20175;-67
2023/07/23 07:11:22;;;;;;;4.70;3.03;;;;;;;23.63;53.71;100001.47;5057117;28;20467;-67
2023/07/23 07:13:48;;;;;;;4.67;3.03;;;;;;;23.63;53.41;99996.50;5064644;28;20237;-66
2023/07/23 07:16:13;;;;;;;4.80;2.80;;;;;;;23.63;53.67;99998.59;5068814;28;20650;-67
2023/07/23 07:18:39;;;;;;;3.27;2.37;;;;;;;23.62;53.91;100000.66;5070663;28;20231;-67
2023/07/23 07:21:04;;;;;;;6.30;2.83;;;;;;;23.64;53.39;99997.34;5036932;28;20182;-66
2023/07/23 07:23:30;;;;;;;4.33;2.77;;;;;;;23.63;53.78;99996.50;5052028;28;20186;-67
2023/07/23 07:26:00;;;;;;;4.70;2.80;;;;;;;23.63;53.77;99992.84;5056630;28;20186;-67
2023/07/23 07:28:26;;;;;;;6.30;3.00;;;;;;;23.62;53.36;99989.13;5033606;28;20176;-67
2023/07/23 07:30:56;;;;;;;4.37;2.80;;;;;;;23.64;53.49;99995.25;5052009;28;20518;-65
2023/07/23 07:33:21;;;;;;;5.13;2.80;;;;;;;23.64;53.74;99985.81;5033293;28;20931;-66
2023/07/23 07:35:47;;;;;;;4.50;3.20;;;;;;;23.63;53.92;99990.75;5041902;28;20563;-65
2023/07/23 07:38:12;;;;;;;6.27;2.97;;;;;;;23.64;53.38;99991.59;5050279;28;20179;-67
2023/07/23 07:40:39;;;;;;;5.93;2.80;;;;;;;23.65;53.88;99984.56;5059237;28;20179;-67
2023/07/23 07:43:04;;;;;;;4.87;2.93;;;;;;;23.64;53.89;99977.16;5049330;28;20156;-67
2023/07/23 07:45:29;;;;;;;5.60;3.00;;;;;;;23.64;53.93;99977.97;5062128;28;21033;-68
2023/07/23 07:47:55;;;;;;;4.23;2.60;;;;;;;23.65;53.51;99987.44;5050490;28;20743;-65
2023/07/23 07:50:20;;;;;;;5.10;2.47;;;;;;;23.66;53.50;99984.16;5051716;28;20533;-68
2023/07/23 07:52:46;;;;;;;6.43;3.23;;;;;;;23.66;53.81;99980.44;5049912;28;20187;-67
2023/07/23 07:55:12;;;;;;;4.00;2.57;;;;;;;23.66;53.70;99983.31;5051489;28;20192;-68
2023/07/23 07:57:38;;;;;;;5.83;2.60;;;;;;;23.66;53.43;99981.28;5049398;28;20187;-67
2023/07/23 08:00:06;;;;;;;3.43;2.30;;;;;;;23.66;53.38;99968.91;5052913;28;20198;-67
2023/07/23 08:02:32;;;;;;;4.37;2.70;;;;;;;23.66;53.38;99978.38;5052921;28;20449;-67
2023/07/23 08:04:58;;;;;;;7.40;2.97;;;;;;;23.67;53.09;99973.41;5060275;28;20445;-66
2023/07/23 08:07:23;;;;;;;4.27;2.50;;;;;;;23.68;53.23;99977.97;5058988;28;20250;-67
2023/07/23 08:09:49;;;;;;;4.60;2.90;;;;;;;23.69;52.92;99980.41;5052402;28;20179;-67
2023/07/23 08:12:14;;;;;;;6.73;2.80;;;;;;;23.68;52.74;99972.19;5070145;28;20203;-67
2023/07/23 08:14:40;;;;;;;4.17;2.23;;;;;;;23.68;52.47;99975.09;5039825;28;20257;-67
2023/07/23 08:17:06;;;;;;;4.70;2.80;;;;;;;23.68;52.84;99964.34;5053194;28;20239;-67
2023/07/23 08:19:31;;;;;;;4.40;2.90;;;;;;;23.68;52.96;99970.13;5068933;28;20186;-65
2023/07/23 08:21:57;;;;;;;5.43;2.50;;;;;;;23.67;53.02;99971.38;5073817;28;20437;-67
2023/07/23 08:24:24;;;;;;;4.27;2.43;;;;;;;23.68;52.59;99970.13;5050014;28;20551;-67
2023/07/23 08:26:49;;;;;;;3.60;2.73;;;;;;;23.70;52.18;99961.88;5052316;28;20425;-67
2023/07/23 08:29:16;;;;;;;5.07;2.73;;;;;;;23.69;52.41;99954.47;5045765;28;20216;-67
2023/07/23 08:31:41;;;;;;;4.07;2.60;;;;;;;23.70;52.31;99970.53;5051835;28;20191;-66
2023/07/23 08:34:07;;;;;;;5.13;2.77;;;;;;;23.70;52.54;99964.78;5046837;28;20433;-67
2023/07/23 08:36:33;;;;;;;5.07;2.80;;;;;;;23.71;52.36;99966.41;5048337;28;20188;-67
2023/07/23 08:38:59;;;;;;;4.67;3.00;;;;;;;23.71;52.13;99954.88;5047914;28;20186;-67
2023/07/23 08:42:00;;;;;;;4.90;2.73;;;;;;;23.72;52.44;99964.31;5049880;28;20207;-66
2023/07/23 08:44:53;;;;;;;3.77;2.50;;;;;;;23.72;52.46;99955.66;5047218;28;20159;-67
2023/07/23 08:47:20;;;;;;;6.23;2.67;;;;;;;23.73;52.22;99961.03;5049692;28;21167;-66
2023/07/23 08:49:46;;;;;;;6.70;2.57;;;;;;;23.75;52.92;99961.44;5051442;28;20778;-60
2023/07/23 08:52:12;;;;;;;3.70;2.37;;;;;;;23.78;52.54;99968.41;5060375;28;20466;-60
2023/07/23 08:54:37;;;;;;;6.30;2.93;;;;;;;23.77;52.90;99964.69;5045392;28;20175;-61
2023/07/23 08:57:04;;;;;;;3.47;2.17;;;;;;;23.78;52.35;99968.41;5046373;28;20437;-60
2023/07/23 08:59:30;;;;;;;3.63;2.27;;;;;;;23.78;52.11;99974.97;5053456;28;20191;-61
2023/07/23 09:01:55;;;;;;;6.23;2.57;;;;;;;23.77;52.39;99956.06;5046032;28;20431;-61
2023/07/23 09:04:20;;;;;;;3.50;2.00;;;;;;;23.77;52.36;99964.69;5048985;28;20470;-67
2023/07/23 09:06:46;;;;;;;3.60;2.37;;;;;;;23.78;52.84;99971.28;5051089;28;20222;-67
2023/07/23 09:09:12;;;;;;;4.33;2.30;;;;;;;23.79;52.53;99961.41;5067006;28;20182;-67
2023/07/23 09:11:38;;;;;;;5.60;2.40;;;;;;;23.80;52.61;99971.69;5051695;28;20598;-61
2023/07/23 09:14:13;;;;;;;4.50;3.00;;;;;;;23.79;52.22;99959.31;5052085;28;20469;-61
2023/07/23 09:16:41;;;;;;;5.17;2.63;;;;;;;23.79;52.08;99964.28;5031712;28;20221;-61
2023/07/23 09:19:09;;;;;;;3.67;2.37;;;;;;;23.81;52.51;99956.00;5060088;28;20441;-61
2023/07/23 09:21:36;;;;;;;4.50;2.80;;;;;;;23.82;52.19;99967.13;5034294;28;20525;-62
2023/07/23 09:24:04;;;;;;;3.77;2.70;;;;;;;23.81;52.29;99965.50;5034541;28;21222;-61
2023/07/23 09:26:30;;;;;;;3.73;2.53;;;;;;;23.82;52.88;99967.13;5054774;28;20438;-67
2023/07/23 09:28:57;;;;;;;5.20;2.97;;;;;;;23.81;52.53;99967.53;5064974;28;20532;-67
2023/07/23 09:31:27;;;;;;;4.77;2.80;;;;;;;23.81;52.54;99956.00;5022494;28;20206;-66
2023/07/23 09:33:54;;;;;;;6.07;2.60;;;;;;;23.80;52.66;99955.22;5058939;28;20986;-65
2023/07/23 09:36:21;;;;;;;4.40;2.67;;;;;;;23.82;52.85;99964.25;5052528;28;20443;-67
2023/07/23 09:38:57;;;;;;;5.40;2.93;;;;;;;23.85;53.01;99957.63;5032800;28;20782;-67
2023/07/23 09:41:22;;;;;;;4.27;2.80;;;;;;;23.85;52.71;99946.09;5065330;28;20420;-61
2023/07/23 09:43:48;;;;;;;4.40;2.80;;;;;;;23.83;53.13;99948.56;5060337;28;20920;-62
2023/07/23 09:46:14;;;;;;;5.00;2.70;;;;;;;23.87;53.31;99954.31;5038872;28;20187;-61
2023/07/23 09:48:48;;;;;;;4.57;2.63;;;;;;;23.84;52.86;99953.09;5048080;28;20241;-67
2023/07/23 09:51:14;;;;;;;4.30;3.00;;;;;;;23.85;53.20;99948.16;5050389;28;20214;-67
2023/07/23 09:53:41;;;;;;;4.70;2.87;;;;;;;23.84;53.30;99938.69;5048868;28;20418;-67
2023/07/23 09:56:08;;;;;;;5.13;2.80;;;;;;;23.85;53.09;99948.16;5034537;28;20595;-65
2023/07/23 09:58:33;;;;;;;5.83;2.90;;;;;;;23.85;52.90;99948.16;5044448;28;20433;-66
2023/07/23 10:00:59;;;;;;;5.33;2.93;;;;;;;23.87;53.15;99942.78;5016661;28;20438;-62
2023/07/23 10:03:24;;;;;;;4.90;2.90;;;;;;;23.85;53.52;99946.09;5048392;28;20190;-61
2023/07/23 10:05:50;;;;;;;4.80;2.47;;;;;;;23.85;53.25;99940.34;5049348;28;20195;-62
2023/07/23 10:08:15;;;;;;;4.30;2.97;;;;;;;23.85;53.27;99933.75;5063536;28;20186;-67
2023/07/23 10:10:41;;;;;;;4.37;2.90;;;;;;;23.87;53.28;99934.13;5057929;28;20211;-61
2023/07/23 10:13:06;;;;;;;5.87;2.80;;;;;;;23.86;53.38;99933.31;5049096;28;20182;-61
2023/07/23 10:15:32;;;;;;;3.87;2.63;;;;;;;23.86;53.37;99944.84;5025003;28;20188;-61
2023/07/23 10:18:00;;;;;;;4.80;2.80;;;;;;;23.89;52.96;99944.00;5045321;28;20235;-67
2023/07/23 10:20:27;;;;;;;4.17;2.57;;;;;;;23.88;53.21;99933.69;5037251;28;20623;-67
2023/07/23 10:22:52;;;;;;;3.90;2.83;;;;;;;23.87;53.27;99926.31;5036779;28;20476;-61
2023/07/23 10:25:26;;;;;;;5.87;3.07;;;;;;;23.89;53.09;99932.47;5051824;28;20426;-62
2023/07/23 10:27:59;;;;;;;3.73;2.60;;;;;;;23.90;53.05;99925.50;5052893;28;20247;-61
2023/07/23 10:30:25;;;;;;;4.33;2.70;;;;;;;23.91;53.06;99917.66;5055873;28;20569;-62
2023/07/23 10:33:08;;;;;;;4.17;2.93;;;;;;;23.92;52.74;99914.34;5045928;28;20418;-61
2023/07/23 10:35:53;;;;;;;4.80;2.60;;;;;;;23.91;53.15;99909.81;5050135;28;20328;-61
2023/07/23 10:38:28;;;;;;;3.80;2.50;;;;;;;23.93;53.16;99895.78;5032296;28;20428;-61
2023/07/23 10:40:54;;;;;;;4.40;3.20;;;;;;;23.92;53.14;99902.81;5045996;28;20421;-62
2023/07/23 10:43:19;;;;;;;5.23;2.73;;;;;;;23.93;53.19;99918.84;5051432;28;20429;-62
2023/07/23 10:45:49;;;;;;;4.40;2.83;;;;;;;23.93;52.86;99907.31;5061289;28;20187;-62
2023/07/23 10:48:17;;;;;;;3.80;2.43;;;;;;;23.93;52.73;99895.78;5053355;28;20190;-62
2023/07/23 10:51:03;;;;;;;4.20;2.50;;;;;;;23.96;53.04;99897.81;5058198;28;20450;-60
2023/07/23 10:53:32;;;;;;;3.57;2.43;;;;;;;23.98;52.95;99897.41;5037030;28;21021;-60
2023/07/23 10:56:00;;;;;;;4.37;2.80;;;;;;;23.99;52.66;99890.38;5048859;28;21174;-61
2023/07/23 10:58:27;;;;;;;3.50;2.80;;;;;;;23.98;52.75;99889.56;5056132;28;20449;-62
2023/07/23 11:00:53;;;;;;;4.77;2.93;;;;;;;24.07;52.51;99892.75;5062325;28;20544;-61
2023/07/23 11:03:20;;;;;;;4.33;3.00;;;;;;;24.09;52.21;99903.88;5052666;28;20433;-60
2023/07/23 11:05:45;;;;;;;5.00;2.93;;;;;;;24.11;51.48;99896.44;5022090;28;20467;-62
2023/07/23 11:08:26;;;;;;;5.20;3.00;;;;;;;24.09;51.67;99901.78;5060246;28;20429;-61
2023/07/23 11:10:55;;;;;;;7.30;3.10;;;;;;;24.09;51.71;99903.88;5049031;28;20222;-61
2023/07/23 11:13:21;;;;;;;4.40;2.83;;;;;;;24.09;51.99;99898.91;5057509;28;20452;-60
2023/07/23 11:15:47;;;;;;;6.17;3.20;;;;;;;24.10;51.40;99893.97;5055782;28;20438;-62
2023/07/23 11:18:13;;;;;;;4.90;2.97;;;;;;;24.09;51.51;99893.13;5030558;28;20462;-61
2023/07/23 11:20:43;;;;;;;5.33;2.87;;;;;;;24.07;51.39;99901.41;5016241;28;20558;-62
2023/07/23 11:23:11;;;;;;;6.00;2.50;;;;;;;24.07;51.60;99889.88;4980138;28;20195;-61
2023/07/23 11:25:36;;;;;;;6.07;2.87;;;;;;;24.07;51.29;99895.66;5032703;28;20445;-60
2023/07/23 11:28:02;;;;;;;3.80;2.70;;;;;;;24.06;51.84;99894.00;5039473;28;21102;-61